Ruddington, United Kingdom
Current Conditions -  °F | °C
As of 3:50 PM on Wednesday 26 Nov 2014 (Local Time) from EGNX Reporting Station
Light Rain Light Rain  
Wind Chill:   Ceiling: 100
Heat Index:   Visibility: 0.93mi
Dew Point:   Wind: 3mph
Humidity: 100%   Direction: 350°N
Pressure: 29.83"   Gusts: NA
Location:  52.89°N, 1.15°W
Report Text: EGNX 261550Z 35003KT 1500 -RADZ BR BKN001 07/07 Q1010
Loading
Personal Weather Stations






























Interactive Weather Map New forecast layout! Learn more

10-Day Weather Forecast

Advertisements
Track Severe Weather on mobile